Time;durP1;ratioP1;P1;durP2;ratioP2;P2;SDS_P1;SDS_P2;PMS_P1;PMS_P2;Temp;Humidity;BMP_temperature;BMP_pressure;BME280_temperature;BME280_humidity;BME280_pressure;Samples;Min_cycle;Max_cycle;Signal;HPM_P1;HPM_P2
2023/02/15 07:17:52;;;;;;;28.33;14.00;;;;;;;;;;5088752;27;20378;-81
2023/02/15 07:20:20;;;;;;;27.33;13.50;;;1.30;99.90;;;;;;5088680;28;20476;-80
2023/02/15 07:22:46;;;;;;;25.48;13.18;;;1.30;99.90;;;;;;5092966;28;20024;-79
2023/02/15 07:25:12;;;;;;;24.88;13.15;;;3.30;99.90;;;;;;5090994;28;20029;-79
2023/02/15 07:27:39;;;;;;;27.15;13.85;;;1.20;99.90;;;;;;5098669;28;20028;-81
2023/02/15 07:30:06;;;;;;;26.42;14.25;;;1.20;99.90;;;;;;5098724;28;20038;-80
2023/02/15 07:32:32;;;;;;;29.08;13.95;;;1.20;99.90;;;;;;5093963;28;20088;-81
2023/02/15 07:34:58;;;;;;;30.08;14.18;;;1.30;99.90;;;;;;5084826;28;20085;-81
2023/02/15 07:37:47;;;;;;;27.77;13.57;;;;;;;;;;5081904;27;20746;-81
2023/02/15 07:40:13;;;;;;;25.98;13.02;;;1.50;99.90;;;;;;5064416;28;20026;-83
2023/02/15 07:42:39;;;;;;;25.10;13.38;;;1.50;99.90;;;;;;5080527;28;20040;-82
2023/02/15 07:45:05;;;;;;;26.00;13.15;;;1.50;99.90;;;;;;5071123;28;20025;-78
2023/02/15 07:47:31;;;;;;;27.17;12.68;;;1.40;99.90;;;;;;5060853;28;20044;-81
2023/02/15 07:49:56;;;;;;;28.02;13.48;;;1.30;99.90;;;;;;5061317;28;20056;-78
2023/02/15 07:52:22;;;;;;;28.27;14.25;;;1.30;99.90;;;;;;5056924;28;20141;-79
2023/02/15 07:54:48;;;;;;;29.33;13.57;;;1.30;99.90;;;;;;5063301;28;20041;-80
2023/02/15 07:57:25;;;;;;;27.63;13.70;;;1.30;99.90;;;;;;5056018;28;20060;-83
2023/02/15 07:59:53;;;;;;;28.42;13.45;;;1.30;99.90;;;;;;5056392;28;20083;-81
2023/02/15 08:02:19;;;;;;;27.20;14.20;;;1.40;99.90;;;;;;5068921;28;20033;-79
2023/02/15 08:04:45;;;;;;;26.88;13.23;;;1.40;99.90;;;;;;5057949;28;20370;-79
2023/02/15 08:07:11;;;;;;;29.25;13.93;;;1.60;99.90;;;;;;5059542;28;20029;-81
2023/02/15 08:09:37;;;;;;;26.70;13.30;;;1.50;99.90;;;;;;5061775;28;20035;-81
2023/02/15 08:12:04;;;;;;;27.38;13.32;;;1.50;99.90;;;;;;5060506;28;20044;-81
2023/02/15 08:14:29;;;;;;;26.70;13.48;;;1.50;99.90;;;;;;5074835;28;20025;-80
2023/02/15 08:16:56;;;;;;;25.17;12.82;;;1.30;99.90;;;;;;5058511;28;20029;-81
2023/02/15 08:19:27;;;;;;;27.23;12.88;;;1.60;99.90;;;;;;5059964;28;20114;-82
2023/02/15 08:21:54;;;;;;;;;;;1.70;99.90;;;;;;5062919;28;20029;-82
2023/02/15 08:24:21;;;;;;;25.90;12.77;;;1.70;99.90;;;;;;5061507;28;19913;-80
2023/02/15 08:26:48;;;;;;;23.60;12.38;;;1.80;99.90;;;;;;5061497;28;20036;-83
2023/02/15 08:29:22;;;;;;;24.02;12.45;;;3.50;99.90;;;;;;5060637;28;20052;-81
2023/02/15 08:31:49;;;;;;;23.90;11.85;;;1.90;99.90;;;;;;5060016;28;20095;-83
2023/02/15 08:34:17;;;;;;;25.88;13.07;;;2.00;99.90;;;;;;5060165;28;20025;-81
2023/02/15 08:36:47;;;;;;;26.63;12.55;;;;;;;;;;5061386;28;20502;-81
2023/02/15 08:39:14;;;;;;;25.52;12.30;;;1.90;99.90;;;;;;5058179;28;20021;-81
2023/02/15 08:41:44;;;;;;;26.20;12.70;;;3.90;99.90;;;;;;5055788;28;20021;-82
2023/02/15 08:44:10;;;;;;;24.88;12.48;;;1.70;99.90;;;;;;5061449;28;20032;-81
2023/02/15 08:46:41;;;;;;;23.60;12.05;;;1.90;99.90;;;;;;5073680;28;20128;-81
2023/02/15 08:49:07;;;;;;;23.80;11.63;;;;;;;;;;5048843;28;20436;-81
2023/02/15 08:51:35;;;;;;;22.13;11.85;;;2.10;99.90;;;;;;5048801;28;20040;-84
2023/02/15 08:54:06;;;;;;;21.75;11.65;;;2.00;99.90;;;;;;5044726;28;20026;-81
2023/02/15 08:56:35;;;;;;;23.20;12.13;;;2.10;99.90;;;;;;5055480;28;20044;-83
2023/02/15 08:59:01;;;;;;;24.70;12.30;;;2.10;99.90;;;;;;5045855;28;20028;-82
2023/02/15 09:01:29;;;;;;;22.17;11.70;;;2.20;99.90;;;;;;5039670;28;20025;-83
2023/02/15 09:04:15;;;;;;;22.75;11.98;;;2.20;99.90;;;;;;5054566;28;20118;-82
2023/02/15 09:06:42;;;;;;;22.25;11.48;;;2.20;99.90;;;;;;5037542;28;20444;-83
2023/02/15 09:09:09;;;;;;;23.13;11.30;;;2.20;99.90;;;;;;5042203;28;20509;-83
2023/02/15 09:11:38;;;;;;;22.88;12.00;;;2.30;99.90;;;;;;5040126;28;20029;-85
2023/02/15 09:14:07;;;;;;;22.83;11.52;;;2.30;99.90;;;;;;5039865;28;20060;-83
2023/02/15 09:16:35;;;;;;;24.60;11.75;;;2.40;99.90;;;;;;5041495;28;20036;-84
2023/02/15 09:19:01;;;;;;;21.75;11.75;;;2.40;99.90;;;;;;5039397;28;20070;-83
2023/02/15 09:21:28;;;;;;;20.77;11.55;;;2.40;99.90;;;;;;5044332;28;20041;-82
2023/02/15 09:23:59;;;;;;;25.70;11.85;;;2.60;99.90;;;;;;5042563;28;20021;-82
2023/02/15 09:26:25;;;;;;;26.13;12.60;;;;;;;;;;5037109;28;20029;-82
2023/02/15 09:28:55;;;;;;;23.40;10.75;;;2.70;99.90;;;;;;5038415;28;20021;-82
2023/02/15 09:31:23;;;;;;;23.02;11.63;;;2.80;99.90;;;;;;5032641;28;20108;-84
2023/02/15 09:33:49;;;;;;;21.88;11.60;;;4.70;99.90;;;;;;5038043;28;20303;-82
2023/02/15 09:36:32;;;;;;;23.52;11.70;;;4.30;99.90;;;;;;5045310;28;20076;-81
2023/02/15 09:39:07;;;;;;;20.35;11.00;;;4.60;99.90;;;;;;5045585;28;20888;-83
2023/02/15 09:41:57;;;;;;;20.80;12.13;;;3.20;99.90;;;;;;5040201;28;20215;-84
2023/02/15 09:44:47;;;;;;;21.95;10.90;;;3.30;99.90;;;;;;5042706;28;20028;-81
2023/02/15 09:47:19;;;;;;;22.33;11.60;;;3.60;99.90;;;;;;5046120;28;20047;-83
2023/02/15 09:49:55;;;;;;;24.45;12.25;;;3.60;99.90;;;;;;5040495;28;20091;-81
2023/02/15 09:52:47;;;;;;;23.23;12.30;;;3.40;99.90;;;;;;5041104;28;20076;-83
2023/02/15 09:55:12;;;;;;;19.63;10.77;;;3.30;99.90;;;;;;5040255;28;20943;-82
2023/02/15 09:58:23;;;;;;;21.52;11.25;;;3.40;99.90;;;;;;5038163;28;20029;-81
2023/02/15 10:01:09;;;;;;;20.40;10.40;;;3.50;99.90;;;;;;5002888;28;20635;-82
2023/02/15 10:03:50;;;;;;;22.85;11.60;;;3.40;99.90;;;;;;5034039;28;20033;-83
2023/02/15 10:06:23;;;;;;;22.30;11.60;;;;;;;;;;5079726;22;20017;-91
2023/02/15 10:09:02;;;;;;;21.27;11.77;;;3.70;99.90;;;;;;5072958;28;20017;-90
2023/02/15 10:11:49;;;;;;;21.08;11.10;;;3.80;99.90;;;;;;5072558;28;20017;-88
2023/02/15 10:14:21;;;;;;;21.05;11.18;;;;;;;;;;5067512;28;20010;-86
2023/02/15 10:16:51;;;;;;;22.95;11.95;;;;;;;;;;5086798;28;20447;-87
2023/02/15 10:19:17;;;;;;;21.00;10.48;;;;;;;;;;5091920;28;20096;-89
2023/02/15 10:21:59;;;;;;;21.38;11.55;;;4.10;99.90;;;;;;5088768;28;20021;-88
2023/02/15 10:24:29;;;;;;;19.58;10.95;;;;;;;;;;5089976;28;20020;-90
2023/02/15 10:27:02;;;;;;;23.27;11.98;;;4.20;99.90;;;;;;5083762;28;20062;-92
2023/02/15 10:37:31;;;;;;;20.30;10.77;;;;;;;;;;5037000;28;20037;-85
2023/02/15 10:40:15;;;;;;;21.30;11.38;;;4.60;99.90;;;;;;5024197;28;20033;-84
2023/02/15 10:43:18;;;;;;;21.63;12.35;;;4.60;99.90;;;;;;5040809;28;20030;-85
2023/02/15 10:46:10;;;;;;;22.25;12.15;;;4.90;99.90;;;;;;5037947;28;20029;-85
2023/02/15 10:48:55;;;;;;;19.75;11.43;;;5.00;99.90;;;;;;5018140;28;20034;-83
2023/02/15 10:51:58;;;;;;;20.98;11.52;;;5.10;99.90;;;;;;5010609;28;20120;-86
2023/02/15 10:54:46;;;;;;;22.02;11.85;;;5.30;99.90;;;;;;5018240;28;20028;-84
2023/02/15 10:57:34;;;;;;;20.58;11.48;;;5.30;99.90;;;;;;5022207;28;20064;-84
2023/02/15 11:00:09;;;;;;;21.20;11.52;;;7.20;99.90;;;;;;5034696;28;20028;-89
2023/02/15 11:02:45;;;;;;;22.58;12.55;;;8.70;99.90;;;;;;5023861;28;20048;-86
2023/02/15 11:05:31;;;;;;;22.35;11.27;;;6.70;99.90;;;;;;5018579;28;20034;-85
2023/02/15 11:08:00;;;;;;;22.65;12.20;;;6.00;99.90;;;;;;5025027;28;20045;-90
2023/02/15 11:10:35;;;;;;;19.88;11.15;;;;;;;;;;5021745;28;20032;-91
2023/02/15 11:13:14;;;;;;;20.10;11.70;;;;;;;;;;5042401;28;20045;-89
2023/02/15 11:16:00;;;;;;;21.88;11.65;;;6.40;99.90;;;;;;5031365;28;20105;-87
2023/02/15 11:28:36;;;;;;;21.55;11.70;;;6.80;99.90;;;;;;4954600;23;20438;-87
2023/02/15 11:31:16;;;;;;;21.23;12.00;;;6.90;99.90;;;;;;5041344;28;20033;-90
2023/02/15 11:33:54;;;;;;;19.75;11.68;;;7.00;99.90;;;;;;5052338;28;20025;-88
2023/02/15 11:36:33;;;;;;;17.77;10.88;;;7.00;99.90;;;;;;5050042;28;20037;-86
2023/02/15 11:39:08;;;;;;;22.77;12.63;;;7.20;99.90;;;;;;5049958;28;20043;-88
2023/02/15 11:41:41;;;;;;;20.02;11.65;;;7.30;99.90;;;;;;5049050;28;20440;-85
2023/02/15 11:44:44;;;;;;;18.13;10.43;;;7.40;99.90;;;;;;5036789;28;20032;-88
2023/02/15 11:47:28;;;;;;;20.38;12.07;;;7.40;99.90;;;;;;5041546;28;20025;-85
2023/02/15 11:49:54;;;;;;;20.83;11.85;;;;;;;;;;5042100;28;20029;-86
2023/02/15 11:52:21;;;;;;;20.48;11.88;;;;;;;;;;5047903;28;20051;-83
2023/02/15 11:54:51;;;;;;;20.17;12.20;;;7.70;99.90;;;;;;5046049;28;20032;-87
2023/02/15 11:57:40;;;;;;;20.92;12.65;;;7.80;99.90;;;;;;5044227;28;20029;-86
2023/02/15 12:00:31;;;;;;;19.70;11.98;;;8.00;99.90;;;;;;5041982;28;20055;-87
2023/02/15 12:02:57;;;;;;;19.67;10.85;;;8.10;99.90;;;;;;5067096;28;20075;-87
2023/02/15 12:05:25;;;;;;;20.17;12.10;;;7.40;99.90;;;;;;5066140;28;20024;-87
2023/02/15 12:08:15;;;;;;;23.10;12.18;;;8.20;99.90;;;;;;5068882;28;20027;-89
2023/02/15 12:10:54;;;;;;;20.42;12.35;;;8.30;99.90;;;;;;5065071;28;20033;-86
2023/02/15 12:13:20;;;;;;;19.67;12.20;;;8.30;99.90;;;;;;5062596;28;20067;-87
2023/02/15 12:15:48;;;;;;;20.77;12.35;;;8.50;99.90;;;;;;5063346;28;20013;-88
2023/02/15 12:18:40;;;;;;;21.42;12.23;;;9.20;99.90;;;;;;5063690;28;20032;-86
2023/02/15 12:21:13;;;;;;;23.02;13.18;;;8.60;99.90;;;;;;5063487;28;20086;-87
2023/02/15 12:23:53;;;;;;;21.63;12.70;;;9.70;99.90;;;;;;5065901;28;20025;-87
2023/02/15 12:26:28;;;;;;;25.48;14.93;;;8.70;99.90;;;;;;5079427;28;20084;-90
2023/02/15 12:28:57;;;;;;;18.58;11.45;;;8.90;99.90;;;;;;5062280;28;20361;-88
2023/02/15 12:31:26;;;;;;;20.85;12.82;;;9.00;99.90;;;;;;5068747;28;20010;-89
2023/02/15 12:33:54;;;;;;;22.00;12.85;;;9.20;99.90;;;;;;5063140;28;20033;-88
2023/02/15 12:36:24;;;;;;;25.25;13.38;;;11.90;99.90;;;;;;5054402;28;20029;-89
2023/02/15 12:39:11;;;;;;;21.77;12.60;;;10.80;99.90;;;;;;5065663;28;20029;-86
2023/02/15 12:41:43;;;;;;;21.65;12.15;;;9.80;99.90;;;;;;5065574;28;20024;-90
2023/02/15 12:44:18;;;;;;;19.55;12.65;;;10.60;99.90;;;;;;5063316;28;20087;-88
2023/02/15 12:47:00;;;;;;;20.90;12.18;;;10.90;99.90;;;;;;5069477;28;20053;-87
2023/02/15 12:49:27;;;;;;;20.60;13.07;;;11.10;99.90;;;;;;5065394;28;20032;-87
2023/02/15 12:51:59;;;;;;;19.48;12.00;;;11.10;99.90;;;;;;5068078;28;20021;-89
2023/02/15 12:54:25;;;;;;;21.23;13.65;;;;;;;;;;5073866;28;20017;-88
2023/02/15 12:56:51;;;;;;;24.77;14.50;;;;;;;;;;5071233;28;20061;-88
2023/02/15 12:59:22;;;;;;;22.42;14.18;;;;;;;;;;5070990;28;20043;-89
2023/02/15 13:01:48;;;;;;;23.10;13.20;;;;;;;;;;5067592;28;20017;-88
2023/02/15 13:04:25;;;;;;;23.10;12.93;;;;;;;;;;5066503;28;20071;-88
2023/02/15 13:06:54;;;;;;;20.80;13.00;;;11.60;99.90;;;;;;5069978;28;20108;-89
2023/02/15 13:09:20;;;;;;;21.25;12.13;;;;;;;;;;5069972;28;20020;-88
2023/02/15 13:11:47;;;;;;;20.95;12.57;;;11.80;99.90;;;;;;5067983;28;20021;-88
2023/02/15 13:14:19;;;;;;;24.98;14.57;;;11.70;99.90;;;;;;5066238;28;20082;-88
2023/02/15 13:16:48;;;;;;;20.17;11.85;;;11.50;99.90;;;;;;5058732;28;20039;-86
2023/02/15 13:19:57;;;;;;;19.85;12.23;;;11.40;99.90;;;;;;5073348;28;20013;-88
2023/02/15 13:22:29;;;;;;;21.13;12.30;;;;;;;;;;4997256;28;20018;-87
2023/02/15 13:25:01;;;;;;;23.85;12.70;;;11.00;99.90;;;;;;4989891;28;20146;-89
2023/02/15 13:27:38;;;;;;;21.17;12.13;;;10.90;99.90;;;;;;5036345;28;20021;-88
2023/02/15 13:30:25;;;;;;;21.92;12.75;;;10.30;99.90;;;;;;5055944;28;20052;-85
2023/02/15 13:32:57;;;;;;;21.27;12.35;;;10.70;99.90;;;;;;5067522;28;20220;-91
2023/02/15 13:35:27;;;;;;;20.95;12.32;;;10.70;99.90;;;;;;5072189;28;20016;-87
2023/02/15 13:38:11;;;;;;;23.27;14.13;;;10.80;99.90;;;;;;5073435;28;20017;-87
2023/02/15 13:40:55;;;;;;;21.23;12.43;;;10.80;99.90;;;;;;5064961;28;20014;-88
2023/02/15 13:43:34;;;;;;;23.27;13.38;;;11.00;99.90;;;;;;5068890;28;20032;-89
2023/02/15 13:46:16;;;;;;;18.33;12.00;;;;;;;;;;5064001;28;20093;-90
2023/02/15 13:49:10;;;;;;;20.73;12.35;;;11.10;99.90;;;;;;5067650;28;20085;-90
2023/02/15 13:51:36;;;;;;;22.17;12.95;;;;;;;;;;5061577;28;20041;-87
2023/02/15 13:54:23;;;;;;;20.63;12.13;;;11.30;99.90;;;;;;5064002;28;20025;-85
2023/02/15 13:57:10;;;;;;;23.08;12.63;;;;;;;;;;5064680;28;20044;-88
2023/02/15 13:59:38;;;;;;;17.73;11.00;;;;;;;;;;5068005;28;20020;-87
2023/02/15 14:02:07;;;;;;;20.77;12.65;;;;;;;;;;5072656;28;20009;-84
2023/02/15 14:04:33;;;;;;;21.10;12.30;;;10.90;99.90;;;;;;5065012;28;20016;-86
2023/02/15 14:06:59;;;;;;;20.60;11.90;;;;;;;;;;5068854;28;20018;-88
2023/02/15 14:09:31;;;;;;;21.50;12.25;;;;;;;;;;5065212;28;20055;-87
2023/02/15 14:12:00;;;;;;;20.15;11.60;;;;;;;;;;5068837;28;20027;-88
2023/02/15 14:14:39;;;;;;;19.85;11.32;;;10.70;99.90;;;;;;5072831;28;20013;-88
2023/02/15 14:17:17;;;;;;;18.55;12.02;;;10.80;99.90;;;;;;5066331;28;20104;-88
2023/02/15 14:19:57;;;;;;;21.33;11.95;;;10.80;99.90;;;;;;5064429;28;20036;-86
2023/02/15 14:22:23;;;;;;;19.30;11.65;;;;;;;;;;5068756;28;20005;-87
2023/02/15 14:25:22;;;;;;;21.00;12.15;;;10.80;99.90;;;;;;5067190;28;20056;-86
2023/02/15 14:27:59;;;;;;;20.55;11.85;;;10.80;99.90;;;;;;5065984;28;20083;-85
2023/02/15 14:30:30;;;;;;;19.13;11.27;;;10.80;99.90;;;;;;5071631;28;20033;-87
2023/02/15 14:33:00;;;;;;;22.40;12.25;;;;;;;;;;5059012;28;20025;-87
2023/02/15 14:35:28;;;;;;;18.73;11.43;;;;;;;;;;5064174;28;20029;-86
2023/02/15 14:38:21;;;;;;;21.77;12.45;;;10.80;99.90;;;;;;5066060;28;20037;-85
2023/02/15 14:41:02;;;;;;;21.48;12.32;;;;;;;;;;5067953;28;20037;-89
2023/02/15 14:43:41;;;;;;;21.15;12.00;;;10.80;99.90;;;;;;5067571;28;20032;-88
2023/02/15 14:46:28;;;;;;;19.50;11.20;;;10.80;99.90;;;;;;5062546;28;20135;-87
2023/02/15 14:49:12;;;;;;;22.08;13.18;;;10.90;99.90;;;;;;5068170;28;20017;-89
2023/02/15 14:51:43;;;;;;;20.73;11.63;;;10.80;99.90;;;;;;5067667;28;20017;-88
2023/02/15 14:54:10;;;;;;;21.75;12.77;;;10.80;99.90;;;;;;5071481;28;20088;-88
2023/02/15 14:56:38;;;;;;;18.95;11.85;;;10.80;99.90;;;;;;5069103;28;20025;-88
2023/02/15 14:59:16;;;;;;;22.73;12.70;;;10.70;99.90;;;;;;5072221;28;20021;-87
2023/02/15 15:01:57;;;;;;;18.52;11.73;;;10.80;99.90;;;;;;5073563;28;20064;-88
2023/02/15 15:04:26;;;;;;;20.67;11.65;;;10.80;99.90;;;;;;5064256;28;20021;-89
2023/02/15 15:07:18;;;;;;;20.80;11.93;;;10.90;99.90;;;;;;5057146;28;20029;-87
2023/02/15 15:09:48;;;;;;;22.55;12.05;;;10.90;99.90;;;;;;5062582;28;20033;-88
2023/02/15 15:12:16;;;;;;;19.20;10.82;;;;;;;;;;5068656;28;20025;-88
2023/02/15 15:14:43;;;;;;;21.60;12.52;;;10.90;99.90;;;;;;5065279;28;20025;-91
2023/02/15 15:17:32;;;;;;;18.20;11.32;;;;;;;;;;5066830;28;20025;-88
2023/02/15 15:20:16;;;;;;;18.20;11.25;;;10.70;99.90;;;;;;5063584;28;20020;-85
2023/02/15 15:22:42;;;;;;;20.52;11.85;;;10.60;99.90;;;;;;5064218;28;20055;-88
2023/02/15 15:25:40;;;;;;;27.25;13.57;;;10.60;99.90;;;;;;5070376;28;20584;-89
2023/02/15 15:28:07;;;;;;;20.88;12.45;;;10.60;99.90;;;;;;5068744;28;20048;-89
2023/02/15 15:30:32;;;;;;;21.20;11.95;;;;;;;;;;5064729;28;20036;-89
2023/02/15 15:33:37;;;;;;;18.98;11.63;;;10.60;99.90;;;;;;5065804;28;20020;-89
2023/02/15 15:36:22;;;;;;;21.63;11.98;;;10.50;99.90;;;;;;5044949;28;20092;-89
2023/02/15 15:39:28;;;;;;;21.17;12.27;;;10.50;99.90;;;;;;5064907;28;20021;-89
2023/02/15 15:42:20;;;;;;;19.95;11.82;;;10.50;99.90;;;;;;5063226;28;20048;-88
2023/02/15 15:45:05;;;;;;;23.52;12.77;;;10.40;99.90;;;;;;5061401;28;20021;-88
2023/02/15 15:47:59;;;;;;;18.73;11.30;;;10.40;99.90;;;;;;5067444;28;20034;-89
2023/02/15 15:50:25;;;;;;;20.05;11.23;;;;;;;;;;5070288;28;20024;-88
2023/02/15 15:52:55;;;;;;;23.25;12.15;;;10.40;99.90;;;;;;5069095;28;20030;-89
2023/02/15 15:55:24;;;;;;;20.30;11.02;;;10.40;99.90;;;;;;5061756;28;20021;-88
2023/02/15 15:58:00;;;;;;;22.92;12.18;;;10.40;99.90;;;;;;5063097;28;20024;-87
2023/02/15 16:00:35;;;;;;;21.63;11.85;;;;;;;;;;5062899;28;20017;-90
2023/02/15 16:03:04;;;;;;;19.90;11.60;;;10.30;99.90;;;;;;5064156;28;20623;-87
2023/02/15 16:05:39;;;;;;;24.05;11.40;;;10.20;99.90;;;;;;5068841;28;20020;-87
2023/02/15 16:08:05;;;;;;;21.80;11.55;;;;;;;;;;5072239;28;20009;-88
2023/02/15 16:10:32;;;;;;;19.10;11.85;;;;;;;;;;5077229;28;20074;-87
2023/02/15 16:12:59;;;;;;;23.20;12.85;;;;;;;;;;5074451;28;20044;-88
2023/02/15 16:15:26;;;;;;;29.02;13.27;;;;;;;;;;5068400;28;20016;-86
2023/02/15 16:17:57;;;;;;;25.88;12.68;;;;;;;;;;5070729;28;20039;-89
2023/02/15 16:20:28;;;;;;;21.85;12.68;;;;;;;;;;5079412;28;20116;-88
2023/02/15 16:23:12;;;;;;;23.80;12.45;;;10.10;99.90;;;;;;5071997;28;20017;-86
2023/02/15 16:26:15;;;;;;;19.95;12.73;;;10.10;99.90;;;;;;5066531;28;20045;-87
2023/02/15 16:28:51;;;;;;;24.23;12.50;;;10.10;99.90;;;;;;5065412;28;20009;-90
2023/02/15 16:31:18;;;;;;;25.45;13.00;;;;;;;;;;5065540;28;20014;-88
2023/02/15 16:33:44;;;;;;;22.48;12.88;;;;;;;;;;5062785;28;20056;-88
2023/02/15 16:36:22;;;;;;;22.45;12.30;;;9.90;99.90;;;;;;5067930;28;20027;-88
2023/02/15 16:39:06;;;;;;;24.98;12.38;;;;;;;;;;5069632;28;20005;-87
2023/02/15 16:41:32;;;;;;;22.10;12.52;;;;;;;;;;5066904;28;20033;-86
2023/02/15 16:44:02;;;;;;;23.00;13.20;;;9.70;99.90;;;;;;5067957;28;20009;-87
2023/02/15 16:46:39;;;;;;;25.55;13.57;;;9.70;99.90;;;;;;5068110;28;20113;-87
2023/02/15 16:49:17;;;;;;;24.40;13.77;;;9.60;99.90;;;;;;5065345;28;20013;-86
2023/02/15 16:51:45;;;;;;;28.30;13.82;;;9.50;99.90;;;;;;5073302;28;20029;-85
2023/02/15 16:54:17;;;;;;;27.60;14.25;;;;;;;;;;5069819;28;20040;-87
2023/02/15 16:56:46;;;;;;;23.85;13.18;;;;;;;;;;5068913;28;20044;-86
2023/02/15 16:59:31;;;;;;;25.65;13.07;;;9.40;99.90;;;;;;5072814;28;20056;-90
2023/02/15 17:01:57;;;;;;;23.08;13.23;;;;;;;;;;5069824;28;20016;-88
2023/02/15 17:04:22;;;;;;;30.00;13.85;;;9.30;99.90;;;;;;5069157;28;20032;-86
2023/02/15 17:07:15;;;;;;;24.50;12.82;;;9.20;99.90;;;;;;5064043;28;20033;-89
2023/02/15 17:10:01;;;;;;;26.77;14.88;;;9.10;99.90;;;;;;5067803;28;20264;-87
2023/02/15 17:12:55;;;;;;;22.38;13.27;;;9.00;99.90;;;;;;5064576;28;20017;-85
2023/02/15 17:15:29;;;;;;;26.00;13.32;;;8.90;99.90;;;;;;5062409;28;20041;-87
2023/02/15 17:18:02;;;;;;;22.33;12.63;;;8.80;99.90;;;;;;5067823;28;20064;-84
2023/02/15 17:20:29;;;;;;;23.70;12.27;;;;;;;;;;5070150;28;20001;-85
2023/02/15 17:22:55;;;;;;;19.20;10.95;;;;;;;;;;5065903;28;20017;-87
2023/02/15 17:25:32;;;;;;;23.83;10.65;;;8.50;99.90;;;;;;5072190;28;20044;-88
2023/02/15 17:27:58;;;;;;;19.73;11.23;;;;;;;;;;5067040;28;20014;-87
2023/02/15 17:30:33;;;;;;;18.70;11.40;;;8.50;99.90;;;;;;5066149;28;20077;-87
2023/02/15 17:33:01;;;;;;;22.70;11.50;;;8.50;99.90;;;;;;5063311;28;20059;-87
2023/02/15 17:35:29;;;;;;;18.80;10.68;;;8.50;99.90;;;;;;5066525;28;20029;-87
2023/02/15 17:38:17;;;;;;;16.88;10.30;;;8.40;99.90;;;;;;5071748;28;20021;-88
2023/02/15 17:40:43;;;;;;;19.27;12.20;;;8.40;99.90;;;;;;5070049;28;20031;-86
2023/02/15 17:43:09;;;;;;;19.38;10.93;;;;;;;;;;5069771;28;20025;-87
2023/02/15 17:45:47;;;;;;;16.80;10.70;;;8.30;99.90;;;;;;5057539;28;20039;-90
2023/02/15 17:48:34;;;;;;;19.98;10.52;;;8.30;99.90;;;;;;5064634;28;20051;-89
2023/02/15 17:51:06;;;;;;;19.00;11.48;;;8.20;99.90;;;;;;5061596;28;20030;-88
2023/02/15 17:53:32;;;;;;;19.95;10.65;;;8.20;99.90;;;;;;5064526;28;20021;-86
2023/02/15 17:55:58;;;;;;;20.20;11.30;;;;;;;;;;5066151;28;20041;-84
2023/02/15 17:58:24;;;;;;;17.90;10.52;;;;;;;;;;5065860;28;20025;-85
2023/02/15 18:12:22;;;;;;;21.80;12.32;;;7.90;99.90;;;;;;5053807;28;20044;-86
2023/02/15 18:14:49;;;;;;;21.50;12.23;;;7.80;99.90;;;;;;5046685;28;20022;-84
2023/02/15 18:17:16;;;;;;;22.35;11.73;;;7.80;99.90;;;;;;5052149;28;20080;-87
2023/02/15 18:19:44;;;;;;;20.33;12.60;;;7.70;99.90;;;;;;5050685;28;20033;-87
2023/02/15 18:22:18;;;;;;;23.58;13.10;;;7.70;99.90;;;;;;5050488;28;20033;-87
2023/02/15 18:24:44;;;;;;;20.63;10.98;;;;;;;;;;5050826;28;20028;-83
2023/02/15 18:27:13;;;;;;;24.02;13.35;;;;;;;;;;5044426;28;20037;-84
2023/02/15 18:29:39;;;;;;;24.02;13.73;;;;;;;;;;5045849;28;20048;-86
2023/02/15 18:32:09;;;;;;;26.48;13.02;;;7.60;99.90;;;;;;5065754;28;20026;-87
2023/02/15 18:34:40;;;;;;;24.58;13.20;;;7.50;99.90;;;;;;5048748;28;20121;-87
2023/02/15 18:37:12;;;;;;;23.25;13.43;;;7.50;99.90;;;;;;5048976;28;20025;-88
2023/02/15 18:39:42;;;;;;;24.00;12.50;;;7.40;99.90;;;;;;5043675;28;20029;-83
2023/02/15 18:42:35;;;;;;;21.80;11.77;;;7.30;99.90;;;;;;5051240;28;20479;-86
2023/02/15 18:45:10;;;;;;;21.92;12.48;;;7.30;99.90;;;;;;5046946;28;20029;-86
2023/02/15 18:47:35;;;;;;;23.50;12.93;;;7.30;99.90;;;;;;5053630;28;20041;-88
2023/02/15 18:50:01;;;;;;;26.92;12.30;;;;;;;;;;5044672;28;20099;-85
2023/02/15 18:52:33;;;;;;;30.08;13.38;;;7.20;99.90;;;;;;5053671;28;20265;-86
2023/02/15 18:55:03;;;;;;;22.08;12.52;;;7.10;99.90;;;;;;5054129;28;20033;-90
2023/02/15 18:57:29;;;;;;;24.05;12.60;;;;;;;;;;5046123;28;20063;-87
2023/02/15 18:59:55;;;;;;;22.50;12.63;;;;;;;;;;5044520;28;20029;-86
2023/02/15 19:02:21;;;;;;;20.27;12.20;;;;;;;;;;5052974;28;20064;-87
2023/02/15 19:04:47;;;;;;;24.17;12.60;;;7.00;99.90;;;;;;5054738;28;20416;-87
2023/02/15 19:07:28;;;;;;;22.67;12.75;;;6.90;99.90;;;;;;5046613;28;20124;-87
2023/02/15 19:09:56;;;;;;;25.50;13.18;;;;;;;;;;5053984;28;20052;-87
2023/02/15 19:12:22;;;;;;;25.30;13.82;;;;;;;;;;5055115;28;20028;-86
2023/02/15 19:14:50;;;;;;;24.75;12.90;;;;;;;;;;5054598;28;20025;-85
2023/02/15 19:17:18;;;;;;;25.75;13.68;;;6.70;99.90;;;;;;5056403;28;20024;-87
2023/02/15 19:19:45;;;;;;;29.38;14.40;;;6.70;99.90;;;;;;5053318;28;20029;-86
2023/02/15 19:22:29;;;;;;;25.17;14.85;;;6.70;99.90;;;;;;5049475;28;20379;-86
2023/02/15 19:24:58;;;;;;;35.45;14.93;;;6.70;99.90;;;;;;5048934;28;20021;-84
2023/02/15 19:27:34;;;;;;;26.23;15.38;;;6.70;99.90;;;;;;5045923;28;20025;-86
2023/02/15 19:30:12;;;;;;;27.73;15.30;;;6.60;99.90;;;;;;5053158;28;20033;-85
2023/02/15 19:32:38;;;;;;;30.90;15.40;;;;;;;;;;5047058;28;20111;-84
2023/02/15 19:35:05;;;;;;;26.45;14.77;;;6.60;99.90;;;;;;5049353;28;20041;-86
2023/02/15 19:37:40;;;;;;;27.00;15.25;;;6.60;99.90;;;;;;5052043;28;20028;-84
2023/02/15 19:40:15;;;;;;;27.25;15.02;;;6.60;99.90;;;;;;5047592;28;20028;-88
2023/02/15 19:42:40;;;;;;;30.80;15.73;;;;;;;;;;5047832;28;20029;-89
2023/02/15 19:45:19;;;;;;;32.30;16.45;;;6.50;99.90;;;;;;5053713;28;20051;-86
2023/02/15 19:47:47;;;;;;;29.50;15.23;;;;;;;;;;5062019;28;20029;-84
2023/02/15 19:50:17;;;;;;;30.48;16.13;;;6.40;99.90;;;;;;5054017;28;20036;-89
2023/02/15 19:52:44;;;;;;;;;;;6.40;99.90;;;;;;5050788;28;20033;-89
2023/02/15 19:55:31;;;;;;;41.42;19.88;;;6.30;99.90;;;;;;5058371;28;19913;-88
2023/02/15 19:57:58;;;;;;;27.48;15.38;;;6.30;99.90;;;;;;5057012;28;20025;-84
2023/02/15 20:00:29;;;;;;;25.27;15.15;;;6.20;99.90;;;;;;5059175;28;20650;-85
2023/02/15 20:02:55;;;;;;;26.33;13.13;;;6.20;99.90;;;;;;5059666;28;20033;-86
2023/02/15 20:05:21;;;;;;;25.92;13.07;;;6.20;99.90;;;;;;5054631;28;20025;-84
2023/02/15 20:07:49;;;;;;;25.92;13.77;;;;;;;;;;5052756;28;20669;-84
2023/02/15 20:10:17;;;;;;;24.85;13.40;;;6.10;99.90;;;;;;5050596;28;20072;-84
2023/02/15 20:12:43;;;;;;;33.42;13.85;;;;;;;;;;5053976;28;20025;-85
2023/02/15 20:15:33;;;;;;;26.58;14.65;;;6.00;99.90;;;;;;5050977;28;20247;-86
2023/02/15 20:18:05;;;;;;;24.17;13.18;;;6.00;99.90;;;;;;5050075;28;20029;-86
2023/02/15 20:20:38;;;;;;;25.02;13.80;;;6.00;99.90;;;;;;5053193;28;20025;-85
2023/02/15 20:23:05;;;;;;;23.15;14.43;;;;;;;;;;5060525;28;20025;-83
2023/02/15 20:25:32;;;;;;;23.90;13.60;;;5.90;99.90;;;;;;5054778;28;20048;-84
2023/02/15 20:27:59;;;;;;;24.30;13.38;;;5.90;99.90;;;;;;5063578;28;20051;-83
2023/02/15 20:30:28;;;;;;;26.55;14.02;;;5.80;99.90;;;;;;5056114;28;20041;-85
2023/02/15 20:32:54;;;;;;;29.58;14.88;;;;;;;;;;5063372;28;20029;-85
2023/02/15 20:35:22;;;;;;;26.73;14.65;;;5.70;99.90;;;;;;5061883;28;20097;-85
2023/02/15 20:37:51;;;;;;;26.67;13.50;;;5.70;99.90;;;;;;5068281;28;20032;-86
2023/02/15 20:40:20;;;;;;;24.67;14.13;;;5.70;99.90;;;;;;5060069;28;20029;-86
2023/02/15 20:42:46;;;;;;;23.77;13.45;;;;;;;;;;5069762;28;20112;-85
2023/02/15 20:45:16;;;;;;;29.23;14.55;;;5.60;99.90;;;;;;5061228;28;20037;-85
2023/02/15 20:47:47;;;;;;;28.17;14.00;;;;;;;;;;5058882;28;20037;-86
2023/02/15 20:50:14;;;;;;;27.92;15.85;;;5.50;99.90;;;;;;5061910;28;20044;-82
2023/02/15 20:52:40;;;;;;;29.70;15.85;;;;;;;;;;5057082;28;20029;-85
2023/02/15 20:55:22;;;;;;;29.38;15.45;;;5.30;99.90;;;;;;5062310;28;20040;-86
2023/02/15 20:57:48;;;;;;;28.77;16.70;;;;;;;;;;5061035;28;20029;-86
2023/02/15 21:00:25;;;;;;;31.52;16.42;;;5.30;99.90;;;;;;5065822;28;20019;-85
2023/02/15 21:02:55;;;;;;;30.50;16.95;;;5.20;99.90;;;;;;5062140;28;20037;-85
2023/02/15 21:05:23;;;;;;;37.20;17.02;;;5.20;99.90;;;;;;5058512;28;20032;-87
2023/02/15 21:07:51;;;;;;;27.00;15.73;;;5.20;99.90;;;;;;5056892;28;20043;-84
2023/02/15 21:10:19;;;;;;;29.27;16.92;;;5.20;99.90;;;;;;5053986;28;20043;-87
2023/02/15 21:12:45;;;;;;;24.15;14.10;;;;;;;;;;5062426;28;20052;-84
2023/02/15 21:15:38;;;;;;;31.02;16.02;;;5.20;99.90;;;;;;5058285;28;20028;-84
2023/02/15 21:18:15;;;;;;;29.75;15.52;;;5.10;99.90;;;;;;5060547;28;20115;-86